Terminal Aerodrome Forecast
Issued by NWS

Home | Current Version | Previous Version | Text Only | Print | Product List | Glossary On
Versions: 1 2 3 4 5 6 7 8 9 10 11 12 13 14 15 16 17 18 19
795
FTUS46 KMTR 261121
TAFSFO
TAF
KSFO 261121Z 2612/2718 29005KT P6SM FEW070
     FM261600 29010KT 6SM HZ FEW070
     FM262200 29012KT P6SM FEW012 SCT100
     FM270400 29010KT 6SM HZ FEW010 SCT100
     FM271100 28008KT 6SM HZ SCT010 SCT100=

USA.gov is the U.S. government's official web portal to all federal, state and local government web resources and services.